Terminal Aerodrome Forecast
Issued by NWS Grand Forks, ND

Home | Current Version | Previous Version | Graphics & Text | Print | Product List | Glossary On
Versions: 1 2 3 4 5 6 7 8 9 10 11 12 13 14 15 16
000
FTUS43 KFGF 221727
TAFFAR
TAF
KFAR 221727Z 2218/2318 22014KT P6SM FEW200
     FM222300 19015G23KT P6SM BKN150
     FM230700 22012KT P6SM SCT110
     FM231300 28016G24KT P6SM BKN150
     FM231700 31020G28KT P6SM BKN045=

USA.gov is the U.S. government's official web portal to all federal, state and local government web resources and services.